Terminal Aerodrome Forecast
Issued by NWS

Home | Current Version | Previous Version | Graphics & Text | Print | Product List | Glossary On
Versions: 1 2 3 4 5 6 7 8 9 10 11 12
639
FTUS43 KMPX 111120
TAFRNH
TAF
KRNH 111120Z 1112/1212 VRB03KT P6SM SCT120
     FM111900 21005KT P6SM OVC050
     FM120000 22003KT P6SM OVC025
     FM120200 28005KT P6SM BKN025
     FM120700 31007KT P6SM BKN050=

USA.gov is the U.S. government's official web portal to all federal, state and local government web resources and services.